Time;durP1;ratioP1;P1;durP2;ratioP2;P2;SDS_P1;SDS_P2;PMS_P1;PMS_P2;Temp;Humidity;BMP_temperature;BMP_pressure;BME280_temperature;BME280_humidity;BME280_pressure;Samples;Min_cycle;Max_cycle;Signal;HPM_P1;HPM_P2
2023/05/14 00:01:13;;;;;;;8.32;7.53;;;11.00;83.50;;;;;;5093500;28;20024;-75
2023/05/14 00:03:39;;;;;;;10.27;8.30;;;11.00;83.80;;;;;;5093563;28;20480;-74
2023/05/14 00:06:06;;;;;;;9.05;8.02;;;11.00;83.90;;;;;;5093074;28;20016;-74
2023/05/14 00:08:32;;;;;;;8.80;7.88;;;11.00;83.90;;;;;;5093316;28;20024;-73
2023/05/14 00:10:58;;;;;;;8.60;7.80;;;11.00;84.00;;;;;;5093320;28;20028;-74
2023/05/14 00:13:24;;;;;;;9.95;8.55;;;11.00;84.00;;;;;;5093203;28;20062;-75
2023/05/14 00:15:50;;;;;;;10.07;8.38;;;11.00;84.00;;;;;;5093198;28;20023;-74
2023/05/14 00:18:15;;;;;;;9.40;8.40;;;11.10;84.00;;;;;;5092812;28;20032;-76
2023/05/14 00:20:41;;;;;;;10.60;9.18;;;11.00;84.00;;;;;;5093258;28;20024;-73
2023/05/14 00:23:07;;;;;;;8.98;8.07;;;11.00;84.30;;;;;;5093399;28;20086;-79
2023/05/14 00:25:32;;;;;;;10.90;8.73;;;11.00;84.30;;;;;;5093950;28;20043;-77
2023/05/14 00:27:58;;;;;;;9.40;8.38;;;11.10;84.40;;;;;;5093430;28;20033;-75
2023/05/14 00:30:23;;;;;;;10.00;8.90;;;11.10;84.30;;;;;;5093870;28;20456;-77
2023/05/14 00:32:49;;;;;;;10.48;8.75;;;11.10;84.40;;;;;;5093396;28;20024;-75
2023/05/14 00:35:15;;;;;;;10.98;9.10;;;11.10;84.10;;;;;;5093176;28;20051;-75
2023/05/14 00:37:40;;;;;;;9.30;8.35;;;11.20;83.90;;;;;;5092920;28;20123;-76
2023/05/14 00:40:07;;;;;;;10.18;8.93;;;11.20;83.90;;;;;;5092877;28;20035;-75
2023/05/14 00:42:33;;;;;;;10.82;9.73;;;11.10;84.00;;;;;;5092752;28;20060;-77
2023/05/14 00:44:58;;;;;;;27.02;19.67;;;11.20;84.10;;;;;;5092483;28;20499;-75
2023/05/14 00:47:25;;;;;;;46.17;33.15;;;11.20;84.20;;;;;;5092970;28;20381;-75
2023/05/14 00:49:50;;;;;;;32.47;23.23;;;11.20;84.60;;;;;;5092883;28;20020;-75
2023/05/14 00:52:17;;;;;;;15.77;11.65;;;11.20;84.90;;;;;;5092830;28;20032;-75
2023/05/14 00:54:45;;;;;;;11.77;8.95;;;11.20;84.60;;;;;;5092770;28;20099;-75
2023/05/14 00:57:11;;;;;;;9.88;8.88;;;11.20;84.70;;;;;;5092676;28;20077;-75
2023/05/14 00:59:39;;;;;;;8.35;7.25;;;11.20;84.70;;;;;;5092614;28;20024;-75
2023/05/14 01:02:05;;;;;;;9.52;8.35;;;11.20;84.50;;;;;;5092708;28;20031;-75
2023/05/14 01:04:30;;;;;;;11.43;8.00;;;11.10;84.50;;;;;;5092303;28;20376;-75
2023/05/14 01:07:33;;;;;;;10.25;8.43;;;11.10;84.60;;;;;;5092859;28;20046;-75
2023/05/14 01:10:10;;;;;;;9.27;8.05;;;11.10;84.80;;;;;;5092777;28;20028;-75
2023/05/14 01:12:41;;;;;;;8.85;7.95;;;11.10;85.00;;;;;;5093178;28;20017;-74
2023/05/14 01:15:11;;;;;;;9.15;8.18;;;11.10;85.00;;;;;;5092799;28;20051;-75
2023/05/14 01:17:54;;;;;;;9.27;8.27;;;11.10;85.00;;;;;;5092470;28;20024;-74
2023/05/14 01:20:20;;;;;;;10.32;8.63;;;11.00;85.00;;;;;;5092616;28;20388;-74
2023/05/14 01:22:46;;;;;;;9.90;8.70;;;11.00;85.10;;;;;;5092449;28;20031;-75
2023/05/14 01:25:11;;;;;;;15.57;9.35;;;11.00;85.30;;;;;;5092522;28;20016;-75
2023/05/14 01:27:56;;;;;;;9.07;8.15;;;11.00;85.40;;;;;;5092535;28;20389;-76
2023/05/14 01:30:36;;;;;;;11.95;8.77;;;11.00;85.50;;;;;;5093332;28;20103;-74
2023/05/14 01:33:05;;;;;;;8.80;7.80;;;10.90;85.60;;;;;;5096283;28;20024;-74
2023/05/14 01:35:32;;;;;;;11.20;9.07;;;10.90;85.80;;;;;;5096203;28;20035;-74
2023/05/14 01:38:00;;;;;;;9.43;8.52;;;10.90;85.90;;;;;;5096226;28;20471;-75
2023/05/14 01:40:26;;;;;;;11.18;8.73;;;11.00;86.00;;;;;;5096339;28;20036;-75
2023/05/14 01:42:53;;;;;;;9.65;7.95;;;10.90;86.10;;;;;;5096288;28;20075;-75
2023/05/14 01:45:20;;;;;;;10.73;8.52;;;10.90;86.10;;;;;;5096121;28;20484;-77
2023/05/14 01:47:46;;;;;;;10.18;9.10;;;11.00;86.20;;;;;;5096080;28;20472;-75
2023/05/14 01:50:11;;;;;;;9.73;8.73;;;11.00;86.30;;;;;;5095994;28;20020;-76
2023/05/14 01:52:37;;;;;;;9.52;8.50;;;11.00;86.20;;;;;;5095978;28;20476;-75
2023/05/14 01:55:04;;;;;;;10.57;8.85;;;11.00;86.00;;;;;;5095772;28;20384;-75
2023/05/14 01:57:29;;;;;;;11.20;9.98;;;11.10;86.10;;;;;;5095823;28;20036;-75
2023/05/14 01:59:55;;;;;;;13.30;9.75;;;11.10;86.10;;;;;;5095846;28;20066;-75
2023/05/14 02:02:20;;;;;;;12.65;11.35;;;11.00;86.00;;;;;;5095666;28;20032;-75
2023/05/14 02:04:46;;;;;;;11.00;9.90;;;10.90;86.30;;;;;;5095719;28;20024;-76
2023/05/14 02:07:11;;;;;;;11.52;9.68;;;10.90;86.70;;;;;;5098985;28;20063;-76
2023/05/14 02:09:37;;;;;;;11.75;10.45;;;10.90;86.50;;;;;;5095561;28;20028;-76
2023/05/14 02:12:03;;;;;;;11.13;10.02;;;10.90;86.50;;;;;;5095728;28;20024;-76
2023/05/14 02:14:28;;;;;;;12.27;9.43;;;11.00;86.50;;;;;;5095627;28;20020;-76
2023/05/14 02:16:54;;;;;;;11.05;9.32;;;11.00;86.40;;;;;;5095659;28;20039;-76
2023/05/14 02:19:19;;;;;;;11.20;9.88;;;11.00;86.30;;;;;;5095463;28;20511;-76
2023/05/14 02:21:47;;;;;;;13.50;10.63;;;11.00;86.30;;;;;;5077287;28;20404;-75
2023/05/14 02:24:12;;;;;;;14.52;10.80;;;11.00;86.20;;;;;;5095361;28;20023;-75
2023/05/14 02:26:38;;;;;;;12.88;10.15;;;11.00;86.00;;;;;;5095285;28;20091;-75
2023/05/14 02:29:03;;;;;;;10.27;8.93;;;11.00;86.10;;;;;;5095261;28;20032;-75
2023/05/14 02:31:29;;;;;;;9.85;8.80;;;11.10;86.30;;;;;;5095309;28;20028;-75
2023/05/14 02:33:54;;;;;;;11.85;9.52;;;11.10;86.40;;;;;;5095215;28;20020;-75
2023/05/14 02:36:20;;;;;;;12.35;10.25;;;11.10;86.40;;;;;;5094993;28;20500;-75
2023/05/14 02:38:45;;;;;;;10.60;9.23;;;11.10;86.30;;;;;;5076817;28;20464;-76
2023/05/14 02:41:11;;;;;;;12.18;9.45;;;11.10;86.20;;;;;;5094601;28;20480;-76
2023/05/14 02:43:36;;;;;;;12.35;10.45;;;11.10;86.20;;;;;;5095066;28;20529;-75
2023/05/14 02:46:02;;;;;;;11.85;9.60;;;11.10;86.20;;;;;;5094931;28;20023;-75
2023/05/14 02:48:28;;;;;;;11.02;9.38;;;11.10;86.20;;;;;;5094937;28;20397;-75
2023/05/14 02:50:53;;;;;;;12.55;9.57;;;11.10;86.20;;;;;;5096051;28;20024;-76
2023/05/14 02:53:19;;;;;;;11.20;9.93;;;11.10;86.30;;;;;;5095167;28;20027;-76
2023/05/14 02:55:45;;;;;;;10.13;9.02;;;11.10;86.50;;;;;;5095233;28;20881;-76
2023/05/14 02:58:10;;;;;;;12.50;10.00;;;11.00;86.40;;;;;;5094738;28;20016;-75
2023/05/14 03:00:36;;;;;;;11.63;9.50;;;11.00;86.60;;;;;;5094864;28;20107;-76
2023/05/14 03:03:01;;;;;;;10.90;9.60;;;11.00;86.70;;;;;;5094636;28;20039;-75
2023/05/14 03:05:27;;;;;;;11.38;10.18;;;11.00;86.60;;;;;;5094504;28;20021;-76
2023/05/14 03:07:52;;;;;;;10.77;9.68;;;11.10;86.80;;;;;;5094516;28;20024;-75
2023/05/14 03:10:19;;;;;;;12.52;10.45;;;11.10;86.70;;;;;;5076181;28;20353;-75
2023/05/14 03:12:44;;;;;;;12.15;9.23;;;11.10;86.70;;;;;;5094525;28;20020;-75
2023/05/14 03:15:10;;;;;;;12.30;10.43;;;11.10;86.60;;;;;;5094443;28;20036;-75
2023/05/14 03:17:35;;;;;;;13.15;10.30;;;11.20;86.50;;;;;;5094282;28;20024;-74
2023/05/14 03:20:02;;;;;;;11.93;10.13;;;11.20;86.50;;;;;;5094329;28;20128;-74
2023/05/14 03:22:27;;;;;;;12.88;10.80;;;11.20;86.40;;;;;;5094128;28;20035;-75
2023/05/14 03:24:53;;;;;;;13.63;10.57;;;11.20;86.20;;;;;;5076018;28;20020;-75
2023/05/14 03:27:19;;;;;;;12.35;11.05;;;11.20;86.20;;;;;;5094100;28;20044;-75
2023/05/14 03:29:45;;;;;;;11.18;9.98;;;11.20;86.00;;;;;;5093973;28;20103;-75
2023/05/14 03:32:10;;;;;;;13.60;11.05;;;11.20;86.00;;;;;;5094146;28;20102;-76
2023/05/14 03:34:36;;;;;;;14.85;13.13;;;11.20;86.00;;;;;;5094012;28;20016;-76
2023/05/14 03:37:01;;;;;;;11.55;10.35;;;11.20;86.10;;;;;;5094108;28;20123;-75
2023/05/14 03:39:27;;;;;;;14.98;11.60;;;11.10;86.20;;;;;;5093872;28;20020;-76
2023/05/14 03:41:53;;;;;;;12.48;10.60;;;11.10;86.30;;;;;;5094825;28;20365;-75
2023/05/14 03:44:18;;;;;;;14.80;12.27;;;11.20;86.30;;;;;;5096470;28;20028;-76
2023/05/14 03:46:44;;;;;;;15.80;14.00;;;11.20;86.20;;;;;;5097759;28;20027;-75
2023/05/14 03:49:09;;;;;;;15.70;12.77;;;11.10;86.40;;;;;;5079627;28;20035;-75
2023/05/14 03:51:35;;;;;;;18.00;14.68;;;11.00;86.80;;;;;;5097572;28;20085;-75
2023/05/14 03:54:03;;;;;;;14.55;13.05;;;11.00;86.90;;;;;;5096771;28;20016;-76
2023/05/14 03:56:28;;;;;;;14.90;13.35;;;11.00;87.20;;;;;;5099641;28;20031;-76
2023/05/14 03:58:54;;;;;;;14.48;12.60;;;10.90;87.30;;;;;;5099206;28;20388;-76
2023/05/14 04:01:19;;;;;;;14.13;12.63;;;10.80;87.30;;;;;;5098682;28;20044;-75
2023/05/14 04:03:45;;;;;;;13.45;12.07;;;10.90;87.50;;;;;;5094983;28;20050;-75
2023/05/14 04:06:10;;;;;;;15.60;13.70;;;10.80;87.70;;;;;;5094604;28;20494;-75
2023/05/14 04:08:36;;;;;;;14.73;13.05;;;10.80;88.00;;;;;;5094428;28;20016;-75
2023/05/14 04:11:02;;;;;;;14.35;12.07;;;10.80;88.10;;;;;;5076610;28;20028;-75
2023/05/14 04:13:27;;;;;;;13.93;11.95;;;10.80;88.10;;;;;;5094175;28;20067;-75
2023/05/14 04:15:53;;;;;;;16.27;13.77;;;10.90;88.00;;;;;;5093547;28;20020;-73
2023/05/14 04:18:18;;;;;;;16.40;13.35;;;11.00;87.80;;;;;;5093414;28;20089;-76
2023/05/14 04:20:44;;;;;;;21.60;16.38;;;11.00;87.70;;;;;;5093406;28;20111;-73
2023/05/14 04:23:09;;;;;;;20.45;15.05;;;11.10;87.70;;;;;;5093398;28;20028;-75
2023/05/14 04:25:35;;;;;;;22.00;17.45;;;11.10;87.60;;;;;;5093296;28;20469;-74
2023/05/14 04:28:00;;;;;;;15.63;13.20;;;11.00;87.10;;;;;;5093214;28;20031;-74
2023/05/14 04:30:26;;;;;;;16.85;13.32;;;11.00;87.20;;;;;;5093244;28;20021;-75
2023/05/14 04:32:52;;;;;;;18.00;15.32;;;11.00;87.30;;;;;;5075258;28;20429;-75
2023/05/14 04:35:18;;;;;;;18.55;15.27;;;11.00;87.40;;;;;;5093187;28;20495;-74
2023/05/14 04:37:44;;;;;;;21.08;15.73;;;11.00;87.40;;;;;;5093164;28;20048;-74
2023/05/14 04:40:10;;;;;;;22.30;16.95;;;11.00;87.30;;;;;;5092719;28;20020;-75
2023/05/14 04:42:36;;;;;;;20.08;15.57;;;11.00;87.30;;;;;;5092768;28;20039;-75
2023/05/14 04:45:04;;;;;;;17.98;14.75;;;11.00;87.40;;;;;;5092761;28;20039;-74
2023/05/14 04:47:30;;;;;;;20.80;17.58;;;11.10;87.50;;;;;;5092892;28;20489;-75
2023/05/14 04:49:56;;;;;;;20.23;17.17;;;11.10;87.40;;;;;;5093023;28;20468;-75
2023/05/14 04:52:22;;;;;;;18.38;16.33;;;11.10;87.30;;;;;;5092838;28;20027;-74
2023/05/14 04:54:48;;;;;;;17.10;15.05;;;11.20;87.20;;;;;;5092969;28;20020;-75
2023/05/14 04:57:13;;;;;;;17.02;13.80;;;11.20;87.10;;;;;;5092906;28;20020;-76
2023/05/14 04:59:39;;;;;;;17.00;13.73;;;11.20;87.10;;;;;;5092948;28;20028;-77
2023/05/14 05:02:04;;;;;;;15.13;13.55;;;11.20;87.50;;;;;;5092478;28;20025;-76
2023/05/14 05:04:30;;;;;;;17.23;14.75;;;11.20;86.90;;;;;;5093871;28;20016;-77
2023/05/14 05:06:56;;;;;;;19.27;14.70;;;11.10;86.90;;;;;;5097054;28;20084;-77
2023/05/14 05:09:21;;;;;;;16.45;14.43;;;11.10;87.10;;;;;;5097097;28;20032;-75
2023/05/14 05:11:47;;;;;;;16.85;14.23;;;11.10;87.20;;;;;;5097030;28;20100;-76
2023/05/14 05:14:12;;;;;;;19.55;16.13;;;11.10;87.60;;;;;;5078628;28;20024;-77
2023/05/14 05:16:38;;;;;;;17.13;15.30;;;11.10;87.70;;;;;;5096804;28;20024;-74
2023/05/14 05:19:04;;;;;;;19.10;16.63;;;11.10;88.60;;;;;;5096814;28;20024;-76
2023/05/14 05:21:29;;;;;;;19.27;15.70;;;11.10;87.80;;;;;;5096615;28;20028;-75
2023/05/14 05:23:55;;;;;;;16.85;15.05;;;11.00;87.90;;;;;;5096648;28;20107;-74
2023/05/14 05:26:21;;;;;;;19.33;16.42;;;11.10;87.90;;;;;;5096692;28;20020;-74
2023/05/14 05:28:46;;;;;;;15.77;14.05;;;11.10;87.70;;;;;;5096660;28;20019;-74
2023/05/14 05:31:12;;;;;;;17.63;14.32;;;11.20;87.60;;;;;;5096695;28;20052;-74
2023/05/14 05:33:38;;;;;;;16.60;13.57;;;11.20;87.60;;;;;;5096457;28;20032;-75
2023/05/14 05:36:04;;;;;;;15.25;13.63;;;11.30;87.60;;;;;;5096094;28;20052;-76
2023/05/14 05:38:29;;;;;;;19.42;14.93;;;11.30;87.40;;;;;;5096402;28;20054;-75
2023/05/14 05:40:55;;;;;;;24.00;18.00;;;11.40;87.20;;;;;;5096353;28;20099;-76
2023/05/14 05:43:21;;;;;;;32.90;19.45;;;11.40;87.00;;;;;;5096226;28;20032;-75
2023/05/14 05:45:46;;;;;;;20.92;16.92;;;11.40;86.60;;;;;;5078125;28;20069;-75
2023/05/14 05:48:12;;;;;;;19.70;15.82;;;11.50;86.80;;;;;;5096228;28;20499;-76
2023/05/14 05:50:37;;;;;;;21.38;17.13;;;11.50;86.60;;;;;;5077875;28;20028;-77
2023/05/14 05:53:03;;;;;;;26.88;19.15;;;11.50;86.60;;;;;;5096324;28;20020;-77
2023/05/14 05:55:29;;;;;;;36.00;23.30;;;11.60;86.30;;;;;;5096232;28;20024;-76
2023/05/14 05:57:55;;;;;;;27.60;19.13;;;11.50;86.30;;;;;;5095939;28;20024;-76
2023/05/14 06:00:20;;;;;;;33.08;23.17;;;11.40;87.20;;;;;;5095890;28;20097;-76
2023/05/14 06:02:46;;;;;;;31.90;24.02;;;11.30;87.50;;;;;;5095934;28;20040;-77
2023/05/14 06:05:12;;;;;;;39.17;22.73;;;11.20;88.50;;;;;;5095987;28;20095;-76
2023/05/14 06:07:38;;;;;;;33.60;24.45;;;11.30;89.30;;;;;;5095903;28;20027;-77
2023/05/14 06:10:04;;;;;;;39.83;23.70;;;11.40;88.00;;;;;;5095709;28;20031;-74
2023/05/14 06:12:29;;;;;;;39.28;25.38;;;11.30;88.70;;;;;;5095762;28;20028;-74
2023/05/14 06:14:56;;;;;;;32.05;22.92;;;11.30;88.20;;;;;;5095702;28;20487;-76
2023/05/14 06:17:23;;;;;;;37.10;25.63;;;11.20;89.10;;;;;;5094898;28;20016;-74
2023/05/14 06:19:50;;;;;;;37.33;25.42;;;11.20;88.90;;;;;;5095602;28;20024;-75
2023/05/14 06:22:15;;;;;;;40.05;26.58;;;11.20;89.20;;;;;;5095455;28;20044;-76
2023/05/14 06:24:41;;;;;;;35.63;24.80;;;11.10;89.30;;;;;;5095651;28;20076;-76
2023/05/14 06:27:06;;;;;;;28.83;20.75;;;11.10;89.50;;;;;;5095365;28;20055;-74
2023/05/14 06:29:32;;;;;;;33.50;21.75;;;11.20;89.50;;;;;;5095480;28;20024;-74
2023/05/14 06:32:02;;;;;;;33.50;22.92;;;11.30;89.50;;;;;;5077186;28;20082;-74
2023/05/14 06:34:28;;;;;;;36.15;24.10;;;11.30;89.40;;;;;;5095351;28;20020;-76
2023/05/14 06:36:53;;;;;;;30.20;24.35;;;11.30;89.30;;;;;;5095263;28;20044;-75
2023/05/14 06:39:19;;;;;;;27.08;20.38;;;11.40;89.00;;;;;;5095225;28;20117;-74
2023/05/14 06:41:44;;;;;;;22.15;17.88;;;11.40;89.00;;;;;;5095071;28;20056;-74
2023/05/14 06:44:10;;;;;;;27.10;19.73;;;11.60;88.80;;;;;;5095103;28;20499;-75
2023/05/14 06:46:36;;;;;;;26.42;20.88;;;11.60;88.10;;;;;;5076825;28;20107;-76
2023/05/14 06:49:01;;;;;;;31.75;21.92;;;11.80;87.60;;;;;;5094983;28;20024;-76
2023/05/14 06:51:27;;;;;;;30.40;22.85;;;11.80;86.60;;;;;;5095026;28;20028;-76
2023/05/14 06:53:54;;;;;;;28.48;20.05;;;11.70;86.80;;;;;;5076808;28;20496;-76
2023/05/14 06:56:20;;;;;;;25.52;19.70;;;11.60;87.40;;;;;;5094631;28;20081;-76
2023/05/14 06:58:59;;;;;;;33.30;23.25;;;11.70;87.70;;;;;;5094899;28;20022;-76
2023/05/14 07:01:25;;;;;;;30.10;23.10;;;11.80;87.40;;;;;;5094551;28;20023;-76
2023/05/14 07:03:50;;;;;;;28.17;21.73;;;11.90;87.00;;;;;;5094605;28;20110;-75
2023/05/14 07:06:16;;;;;;;28.90;22.13;;;11.90;86.80;;;;;;5094860;28;20024;-76
2023/05/14 07:08:44;;;;;;;24.83;20.75;;;11.90;86.40;;;;;;5094738;28;20381;-76
2023/05/14 07:11:10;;;;;;;35.00;23.90;;;12.00;86.20;;;;;;5094635;28;20020;-75
2023/05/14 07:13:36;;;;;;;27.55;21.27;;;12.00;86.30;;;;;;5094353;28;20117;-76
2023/05/14 07:16:01;;;;;;;27.55;20.48;;;12.10;86.00;;;;;;5094275;28;20095;-76
2023/05/14 07:18:27;;;;;;;25.98;21.58;;;12.10;85.80;;;;;;5094534;28;20028;-77
2023/05/14 07:20:53;;;;;;;31.27;23.65;;;12.00;85.80;;;;;;5094419;28;20016;-75
2023/05/14 07:23:18;;;;;;;41.30;16.77;;;12.00;86.10;;;;;;5094478;28;20036;-81
2023/05/14 07:25:44;;;;;;;32.85;16.50;;;12.30;89.40;;;;;;5095600;28;20023;-79
2023/05/14 07:28:10;;;;;;;28.80;17.17;;;12.70;91.00;;;;;;5075373;28;20146;-81
2023/05/14 07:30:35;;;;;;;23.17;16.25;;;13.10;87.10;;;;;;5094291;28;20056;-83
2023/05/14 07:33:01;;;;;;;20.48;16.80;;;13.30;83.90;;;;;;5076134;28;20020;-82
2023/05/14 07:35:27;;;;;;;20.38;15.85;;;13.50;83.10;;;;;;5076006;28;20094;-82
2023/05/14 07:37:53;;;;;;;19.00;15.25;;;13.70;81.30;;;;;;5094600;28;20036;-82
2023/05/14 07:40:19;;;;;;;18.58;15.07;;;13.90;81.40;;;;;;5094649;28;20028;-83
2023/05/14 07:42:44;;;;;;;17.10;13.60;;;14.00;78.60;;;;;;5094884;28;20038;-83
2023/05/14 07:45:10;;;;;;;19.33;15.63;;;14.20;78.80;;;;;;5076168;28;20016;-83
2023/05/14 07:47:35;;;;;;;18.23;12.15;;;14.30;77.00;;;;;;5076427;28;20447;-77
2023/05/14 07:50:01;;;;;;;18.83;13.50;;;14.50;77.20;;;;;;5093840;28;20024;-77
2023/05/14 07:52:26;;;;;;;17.58;13.95;;;14.60;75.50;;;;;;5075746;28;20071;-74
2023/05/14 07:54:52;;;;;;;14.65;12.35;;;14.70;74.40;;;;;;5093809;28;20036;-77
2023/05/14 07:57:18;;;;;;;14.27;12.45;;;14.50;74.60;;;;;;5093866;28;20035;-74
2023/05/14 07:59:44;;;;;;;16.50;13.35;;;14.30;75.70;;;;;;5093549;28;20468;-74
2023/05/14 08:02:11;;;;;;;16.77;13.95;;;14.10;76.10;;;;;;5093533;28;20038;-76
2023/05/14 08:04:37;;;;;;;17.45;13.88;;;13.90;76.70;;;;;;5093730;28;20028;-77
2023/05/14 08:07:03;;;;;;;15.93;13.88;;;13.60;77.50;;;;;;5076053;28;20024;-76
2023/05/14 08:09:29;;;;;;;17.88;14.20;;;13.30;78.80;;;;;;5093963;28;20024;-77
2023/05/14 08:11:54;;;;;;;17.08;14.27;;;13.10;79.50;;;;;;5077105;28;20023;-79
2023/05/14 08:14:20;;;;;;;17.27;13.90;;;12.90;80.50;;;;;;5096101;28;20468;-76
2023/05/14 08:16:46;;;;;;;19.48;15.80;;;12.80;80.80;;;;;;5094099;28;20050;-77
2023/05/14 08:19:12;;;;;;;19.45;15.82;;;12.60;81.40;;;;;;5096645;28;20030;-76
2023/05/14 08:21:37;;;;;;;18.23;15.43;;;12.50;82.40;;;;;;5093938;28;20115;-74
2023/05/14 08:24:03;;;;;;;18.13;15.50;;;12.50;82.40;;;;;;5093629;28;20020;-75
2023/05/14 08:26:29;;;;;;;17.63;14.57;;;12.50;82.90;;;;;;5075262;28;20028;-76
2023/05/14 08:28:54;;;;;;;17.88;15.10;;;12.50;82.90;;;;;;5093342;28;20069;-75
2023/05/14 08:31:20;;;;;;;17.17;13.88;;;12.60;82.80;;;;;;5093087;28;20084;-79
2023/05/14 08:33:45;;;;;;;16.75;13.73;;;12.60;82.40;;;;;;5093114;28;20059;-76
2023/05/14 08:36:11;;;;;;;21.38;15.48;;;12.70;82.40;;;;;;5093369;28;20054;-77
2023/05/14 08:38:37;;;;;;;16.83;13.95;;;12.90;82.10;;;;;;5074980;28;20438;-76
2023/05/14 08:41:05;;;;;;;17.08;14.13;;;12.90;81.90;;;;;;5074585;28;20432;-78
2023/05/14 08:44:08;;;;;;;17.40;14.30;;;12.90;81.70;;;;;;5092944;28;20039;-79
2023/05/14 08:46:35;;;;;;;14.80;13.20;;;12.90;82.30;;;;;;5089229;28;20032;-75
2023/05/14 08:49:10;;;;;;;18.13;12.82;;;12.90;82.10;;;;;;5093427;28;20020;-77
2023/05/14 08:51:35;;;;;;;17.35;14.13;;;12.90;81.60;;;;;;5093051;28;20476;-76
2023/05/14 08:54:02;;;;;;;15.70;13.57;;;12.70;82.20;;;;;;5092784;28;20041;-78
2023/05/14 08:56:31;;;;;;;14.38;12.88;;;12.60;82.30;;;;;;5092906;28;20499;-76
2023/05/14 08:58:56;;;;;;;20.33;13.77;;;12.50;82.70;;;;;;5093019;28;20070;-77
2023/05/14 09:01:22;;;;;;;16.95;14.75;;;12.50;83.00;;;;;;5093043;28;20358;-76
2023/05/14 09:03:49;;;;;;;16.23;14.40;;;12.40;83.80;;;;;;5074467;28;20032;-76
2023/05/14 09:06:15;;;;;;;16.70;13.70;;;12.40;84.30;;;;;;5092952;28;20032;-77
2023/05/14 09:08:41;;;;;;;14.50;13.00;;;12.40;83.80;;;;;;5092874;28;20523;-76
2023/05/14 09:11:07;;;;;;;14.75;12.20;;;12.40;83.20;;;;;;5092879;28;20068;-76
2023/05/14 09:13:37;;;;;;;14.55;11.70;;;12.40;83.20;;;;;;5092929;28;20026;-75
2023/05/14 09:16:02;;;;;;;13.65;11.52;;;12.50;83.00;;;;;;5074801;28;20029;-77
2023/05/14 09:18:28;;;;;;;13.38;11.63;;;12.50;84.10;;;;;;5093594;28;20444;-77
2023/05/14 09:20:54;;;;;;;16.83;11.70;;;12.50;83.70;;;;;;5091802;28;20032;-78
2023/05/14 09:23:20;;;;;;;17.55;12.30;;;12.50;83.80;;;;;;5073078;28;20094;-78
2023/05/14 09:25:47;;;;;;;13.88;12.25;;;12.40;84.00;;;;;;5072698;28;20473;-76
2023/05/14 09:28:17;;;;;;;15.07;12.30;;;12.50;84.40;;;;;;5054735;28;20111;-79
2023/05/14 09:30:49;;;;;;;13.00;11.60;;;12.40;85.40;;;;;;5054393;28;20112;-76
2023/05/14 09:33:26;;;;;;;11.93;10.57;;;12.50;84.40;;;;;;5054546;28;20027;-77
2023/05/14 09:35:57;;;;;;;15.75;13.23;;;12.50;84.30;;;;;;5054233;28;20380;-77
2023/05/14 09:38:27;;;;;;;18.52;14.30;;;12.60;83.80;;;;;;5054292;28;20032;-77
2023/05/14 09:40:53;;;;;;;17.90;13.73;;;12.50;82.60;;;;;;5072274;28;20023;-77
2023/05/14 09:43:18;;;;;;;15.15;13.23;;;12.50;82.90;;;;;;5072254;28;20389;-76
2023/05/14 09:45:44;;;;;;;18.27;13.93;;;12.60;82.50;;;;;;5072385;28;20029;-76
2023/05/14 09:48:10;;;;;;;16.40;13.90;;;12.80;82.40;;;;;;5072362;28;20028;-77
2023/05/14 09:50:42;;;;;;;16.77;12.50;;;13.00;81.90;;;;;;5072241;28;20021;-76
2023/05/14 09:53:08;;;;;;;16.88;13.52;;;13.30;81.50;;;;;;5075876;28;20021;-77
2023/05/14 09:55:35;;;;;;;17.98;13.07;;;13.70;80.70;;;;;;5058155;28;20024;-77
2023/05/14 09:58:04;;;;;;;14.27;11.80;;;13.90;78.90;;;;;;5058444;28;20127;-77
2023/05/14 10:00:31;;;;;;;13.52;11.38;;;14.00;77.00;;;;;;5058127;28;20389;-76
2023/05/14 10:03:00;;;;;;;16.08;13.32;;;14.20;76.20;;;;;;5058043;28;20123;-76
2023/05/14 10:05:26;;;;;;;13.95;11.10;;;14.10;75.40;;;;;;5075754;28;20187;-77
2023/05/14 10:07:55;;;;;;;12.65;11.25;;;14.20;75.80;;;;;;5075900;28;20020;-75
2023/05/14 10:10:25;;;;;;;15.70;11.85;;;14.30;75.30;;;;;;5057904;28;20025;-78
2023/05/14 10:12:56;;;;;;;15.20;11.85;;;14.20;74.90;;;;;;5057558;28;20119;-76
2023/05/14 10:15:37;;;;;;;13.35;11.32;;;14.00;75.80;;;;;;5075742;28;20028;-77
2023/05/14 10:18:10;;;;;;;13.38;11.32;;;13.80;76.50;;;;;;5057400;28;20028;-77
2023/05/14 10:20:37;;;;;;;12.75;10.32;;;13.90;76.70;;;;;;5075325;28;20023;-77
2023/05/14 10:23:03;;;;;;;12.98;11.68;;;13.90;76.40;;;;;;5057478;28;20040;-76
2023/05/14 10:25:29;;;;;;;10.82;9.40;;;14.10;76.00;;;;;;5075121;28;20025;-77
2023/05/14 10:27:55;;;;;;;14.38;10.80;;;14.20;76.40;;;;;;5075638;28;20107;-76
2023/05/14 10:30:24;;;;;;;9.63;8.45;;;14.50;75.70;;;;;;5075276;28;20031;-76
2023/05/14 10:33:05;;;;;;;10.95;9.05;;;14.80;74.90;;;;;;5057100;28;20028;-77
2023/05/14 10:35:50;;;;;;;10.20;9.07;;;15.30;73.50;;;;;;5075025;28;20465;-77
2023/05/14 10:38:15;;;;;;;10.13;9.02;;;15.50;72.10;;;;;;5057207;28;20036;-74
2023/05/14 10:40:41;;;;;;;10.70;9.60;;;15.70;71.00;;;;;;5057123;28;20025;-77
2023/05/14 10:43:10;;;;;;;10.98;9.10;;;15.70;69.40;;;;;;5075212;28;20039;-77
2023/05/14 10:45:35;;;;;;;11.93;9.30;;;15.80;69.40;;;;;;5074968;28;20023;-79
2023/05/14 10:48:01;;;;;;;10.95;9.02;;;15.90;68.80;;;;;;5074720;28;20024;-76
2023/05/14 10:50:28;;;;;;;11.38;8.70;;;16.20;68.80;;;;;;5056880;28;20189;-76
2023/05/14 10:52:55;;;;;;;11.05;9.52;;;16.40;68.50;;;;;;5056938;28;20044;-76
2023/05/14 10:55:21;;;;;;;13.73;8.73;;;16.40;66.40;;;;;;5074838;28;20082;-76
2023/05/14 10:57:48;;;;;;;12.00;9.10;;;16.20;66.30;;;;;;5074959;28;20512;-76
2023/05/14 11:00:15;;;;;;;11.18;9.10;;;16.30;66.80;;;;;;5056819;28;20020;-75
2023/05/14 11:02:43;;;;;;;10.57;8.45;;;16.40;66.40;;;;;;5074493;28;20040;-76
2023/05/14 11:05:12;;;;;;;12.88;9.13;;;16.30;65.80;;;;;;5074746;28;20074;-76
2023/05/14 11:07:43;;;;;;;9.60;8.55;;;16.20;65.50;;;;;;5074517;28;20017;-78
2023/05/14 11:10:14;;;;;;;9.98;8.93;;;16.30;65.90;;;;;;5075016;28;20024;-78
2023/05/14 11:12:42;;;;;;;9.48;8.18;;;16.50;64.90;;;;;;5074566;28;20108;-76
2023/05/14 11:15:13;;;;;;;9.73;8.70;;;16.60;65.30;;;;;;5074655;28;20024;-76
2023/05/14 11:17:40;;;;;;;9.23;8.05;;;16.90;64.10;;;;;;5074340;28;20028;-76
2023/05/14 11:20:06;;;;;;;9.90;8.70;;;17.30;64.00;;;;;;5074515;28;20016;-75
2023/05/14 11:22:33;;;;;;;13.10;8.57;;;17.60;61.60;;;;;;5073977;28;20036;-77
2023/05/14 11:25:02;;;;;;;10.38;8.35;;;17.30;61.10;;;;;;5074505;28;20070;-77
2023/05/14 11:27:28;;;;;;;7.50;6.60;;;17.30;61.40;;;;;;5056550;28;20025;-76
2023/05/14 11:29:57;;;;;;;9.70;8.23;;;17.30;62.50;;;;;;5056678;28;20087;-77
2023/05/14 11:32:23;;;;;;;8.27;7.35;;;17.20;61.30;;;;;;5074178;28;20074;-77
2023/05/14 11:34:48;;;;;;;9.07;7.13;;;17.30;62.00;;;;;;5074132;28;20012;-78
2023/05/14 11:37:15;;;;;;;7.13;6.45;;;17.30;62.30;;;;;;5073922;28;20082;-81
2023/05/14 11:39:48;;;;;;;7.63;6.80;;;17.40;61.90;;;;;;5073746;28;20414;-78
2023/05/14 11:42:17;;;;;;;7.75;6.95;;;17.60;59.60;;;;;;5073608;28;20024;-77
2023/05/14 11:44:43;;;;;;;6.90;5.72;;;17.50;59.20;;;;;;5073718;28;20021;-76
2023/05/14 11:47:09;;;;;;;8.43;6.47;;;17.60;58.90;;;;;;5073823;28;20480;-77
2023/05/14 11:49:36;;;;;;;6.43;5.82;;;17.80;57.40;;;;;;5073544;28;20024;-77
2023/05/14 11:52:04;;;;;;;7.15;6.25;;;18.10;57.80;;;;;;5073654;28;20025;-76
2023/05/14 11:54:31;;;;;;;5.03;4.53;;;18.30;57.20;;;;;;5073266;28;20029;-78
2023/05/14 11:56:58;;;;;;;5.30;4.80;;;18.50;56.20;;;;;;5073622;28;20029;-79
2023/05/14 11:59:26;;;;;;;6.05;4.60;;;18.80;54.30;;;;;;5073789;28;20029;-83
2023/05/14 12:01:51;;;;;;;5.03;4.57;;;19.10;53.00;;;;;;5073691;28;20029;-79
2023/05/14 12:04:21;;;;;;;5.28;4.78;;;19.40;51.00;;;;;;5073171;28;20032;-81
2023/05/14 12:06:50;;;;;;;6.70;4.97;;;19.60;50.10;;;;;;5073226;28;20048;-77
2023/05/14 12:09:17;;;;;;;10.20;6.00;;;19.80;49.60;;;;;;5055288;28;20485;-80
2023/05/14 12:11:45;;;;;;;5.43;4.93;;;19.30;49.80;;;;;;5055439;28;20024;-74
2023/05/14 12:14:15;;;;;;;6.03;5.30;;;19.40;50.40;;;;;;5072431;28;20365;-81
2023/05/14 12:16:42;;;;;;;4.97;4.47;;;19.60;49.60;;;;;;5055450;28;20151;-76
2023/05/14 12:19:10;;;;;;;4.57;3.80;;;19.60;48.70;;;;;;5073110;28;20098;-75
2023/05/14 12:21:37;;;;;;;6.55;4.47;;;19.70;49.00;;;;;;5055182;28;20436;-77
2023/05/14 12:24:03;;;;;;;5.07;4.25;;;19.90;47.70;;;;;;5075313;28;20024;-74
2023/05/14 12:26:31;;;;;;;5.55;3.97;;;20.00;47.00;;;;;;5073497;28;20032;-76
2023/05/14 12:29:02;;;;;;;7.25;4.38;;;20.20;47.40;;;;;;5073201;28;20020;-77
2023/05/14 12:31:32;;;;;;;5.20;4.43;;;19.90;47.10;;;;;;5073641;28;20028;-76